Latest Weather Observations for Wilsons Promontory

IDV60801

Issued at 6:05 pm EDT Wednesday 26 November 2014 (issued every 30 minutes, with the page automatically refreshed every 10 minutes)

About weather observations | Map of weather stations | Latest weather observations for VIC | Other Formats
Station Details ID: 085096 Name: WILSONS PROMONTORY LIGHTHOUSE Lat: -39.13 Lon: 146.42 Height: 95.0 m
Data from the previous 72 hours. | See also: Recent months at Wilsons Promontory
Date/Time
EDT
Temp
°C
App
Temp
°C
Dew
Point
Rel
Hum
%
Delta-T
°C
Wind Press
QNH
hPa
Press
MSL
hPa
Rain
since 9 am
mm
Dir
 
Spd
km/h
Gust
km/h
Spd
kts
Gust
kts
26/06:00pm 13.4 1.8 6.7 64 3.2 WSW 57 72 31 39 1018.9 1018.9 2.2
26/05:30pm 13.5 2.4 6.4 62 3.4 W 54 76 29 41 1018.7 - 2.2
26/05:11pm 13.3 2.3 6.9 65 3.1 WSW 54 74 29 40 1019.0 - 2.2
26/05:00pm 13.5 4.0 6.8 64 3.2 W 46 61 25 33 1019.2 - 2.2
26/04:30pm 13.4 2.9 7.4 67 2.9 WSW 52 70 28 38 1018.9 - 2.2
26/04:00pm 14.1 4.4 7.6 65 3.2 W 48 69 26 37 1019.0 - 2.2
26/03:30pm 13.9 3.8 7.4 65 3.2 WSW 50 70 27 38 1018.9 - 2.2
26/03:10pm 13.8 4.5 7.6 66 3.1 W 46 65 25 35 1018.9 - 2.2
26/03:00pm 14.7 6.0 8.4 66 3.2 W 44 59 24 32 1019.2 1019.2 2.2
26/02:40pm 14.5 4.7 8.7 68 2.9 WSW 50 69 27 37 1019.2 - 2.2
26/02:30pm 14.2 3.2 8.6 69 2.8 WSW 56 70 30 38 1018.7 - 2.2
26/02:06pm 14.1 3.7 9.3 73 2.5 WSW 54 72 29 39 1019.0 - 2.2
26/02:00pm 13.9 1.7 8.9 72 2.5 WSW 63 72 34 39 1018.6 - 2.2
26/01:49pm 14.0 2.4 9.6 75 2.3 WSW 61 67 33 36 1018.7 - 2.2
26/01:30pm 14.3 6.6 10.1 76 2.2 W 41 63 22 34 1018.9 - 2.2
26/01:26pm 14.4 5.8 10.4 77 2.1 WSW 46 65 25 35 1018.9 - 2.2
26/01:00pm 13.8 3.9 11.0 83 1.5 WSW 54 67 29 36 1018.5 - 2.2
26/12:30pm 12.8 1.6 11.2 90 0.8 SW 61 70 33 38 1018.5 - 2.2
26/12:29pm 12.8 1.6 11.2 90 0.8 SW 61 70 33 38 1018.4 - 2.2
26/12:00pm 12.5 4.0 10.7 89 0.9 W 46 69 25 37 1018.0 1018.0 2.2
26/11:30am 12.7 4.7 10.6 87 1.1 W 43 65 23 35 1018.1 - 1.6
26/11:00am 13.6 6.1 9.6 77 2.1 W 39 65 21 35 1018.0 - 0.0
26/10:30am 14.5 6.4 9.9 74 2.4 W 43 65 23 35 1017.9 - 0.0
26/10:08am 14.4 6.0 9.6 73 2.5 W 44 67 24 36 1017.9 - 0.0
26/10:00am 14.5 5.7 9.5 72 2.6 W 46 59 25 32 1018.0 - 0.0
26/09:30am 14.4 6.2 9.6 73 2.5 W 43 61 23 33 1018.3 - 0.0
26/09:00am 14.3 5.7 8.9 70 2.7 W 44 63 24 34 1018.2 1018.2 0.0
26/08:30am 14.0 6.0 9.0 72 2.5 W 41 65 22 35 1018.1 - 0.0
26/08:25am 13.9 5.9 8.9 72 2.5 W 41 65 22 35 1017.9 - 0.0
26/08:00am 13.7 5.3 9.0 73 2.4 W 43 59 23 32 1017.8 - 0.0
26/07:34am 13.7 5.2 8.7 72 2.5 W 43 61 23 33 1017.7 - 0.0
26/07:30am 13.6 5.0 8.7 72 2.5 W 44 61 24 33 1017.7 - 0.0
26/07:00am 13.5 5.6 7.9 69 2.8 W 39 57 21 31 1017.5 - 0.0
26/06:30am 13.4 5.0 7.4 67 2.9 W 41 61 22 33 1017.4 - 0.0
26/06:00am 13.4 5.2 8.0 70 2.7 W 41 63 22 34 1017.2 1017.2 0.0
26/05:30am 13.2 6.8 8.7 74 2.3 W 32 52 17 28 1017.3 - 0.0
26/05:00am 13.3 6.4 8.8 74 2.3 W 35 54 19 29 1017.2 - 0.0
26/04:33am 13.1 5.2 8.0 71 2.5 W 39 57 21 31 1017.0 - 0.0
26/04:30am 13.2 5.3 7.9 70 2.6 W 39 54 21 29 1016.9 - 0.0
26/04:06am 13.1 5.4 7.1 67 2.9 W 37 56 20 30 1016.9 - 0.0
26/04:00am 13.1 5.1 7.3 68 2.8 W 39 56 21 30 1016.9 - 0.0
26/03:30am 13.1 5.2 7.8 70 2.6 W 39 63 21 34 1017.0 - 0.0
26/03:03am 12.9 5.8 8.0 72 2.4 W 35 54 19 29 1017.0 - 0.0
26/03:00am 13.0 6.3 8.3 73 2.3 W 33 50 18 27 1017.0 1017.0 0.0
26/02:31am 12.9 6.3 8.4 74 2.2 W 33 54 18 29 1017.3 - 0.0
26/02:30am 12.9 6.5 8.4 74 2.2 W 32 44 17 24 1017.4 - 0.0
26/02:00am 12.9 6.9 8.6 75 2.2 W 30 50 16 27 1017.3 - 0.0
26/01:30am 13.2 6.3 8.9 75 2.2 W 35 48 19 26 1017.6 - 0.0
26/01:08am 13.3 6.9 8.4 72 2.5 W 32 50 17 27 1018.0 - 0.0
26/01:00am 13.2 6.1 8.1 71 2.5 W 35 48 19 26 1018.0 - 0.0
26/12:34am 13.3 5.0 7.7 69 2.8 W 41 61 22 33 1017.9 - 0.0
26/12:30am 13.4 5.5 7.8 69 2.8 W 39 56 21 30 1017.9 - 0.0
26/12:29am 13.4 5.9 7.8 69 2.8 W 37 56 20 30 1018.0 - 0.0
26/12:00am 13.5 6.3 7.5 67 2.9 W 35 52 19 28 1018.3 1018.3 0.0
 
Date/Time
EDT
Temp
°C
App
Temp
°C
Dew
Point
Rel
Hum
%
Delta-T
°C
Wind Press
QNH
hPa
Press
MSL
hPa
Rain
since 9 am
mm
Dir
 
Spd
km/h
Gust
km/h
Spd
kts
Gust
kts
25/11:39pm 13.5 6.7 7.1 65 3.1 W 32 50 17 27 1018.3 - 0.0
25/11:30pm 13.3 6.2 6.4 63 3.3 W 33 50 18 27 1018.4 - 0.0
25/11:00pm 13.4 2.7 6.3 62 3.4 W 52 72 28 39 1018.1 - 0.0
25/10:51pm 13.4 3.6 7.0 65 3.1 W 48 69 26 37 1018.1 - 0.0
25/10:30pm 13.3 4.4 7.7 69 2.8 W 44 57 24 31 1018.3 - 0.0
25/10:04pm 13.5 5.7 8.1 70 2.7 W 39 57 21 31 1018.6 - 0.0
25/10:00pm 13.5 4.9 8.1 70 2.7 W 43 59 23 32 1018.5 - 0.0
25/09:38pm 13.5 4.2 7.5 67 3.0 W 46 69 25 37 1018.1 - 0.0
25/09:30pm 13.4 4.1 7.4 67 2.9 W 46 63 25 34 1018.1 - 0.0
25/09:00pm 13.4 3.7 7.6 68 2.9 W 48 69 26 37 1017.6 1017.6 0.0
25/08:30pm 13.2 3.7 8.5 73 2.4 W 48 69 26 37 1017.7 - 0.0
25/08:06pm 13.1 2.0 7.8 70 2.6 W 56 74 30 40 1017.4 - 0.0
25/08:00pm 13.0 1.3 7.9 71 2.5 W 59 74 32 40 1017.0 - 0.0
25/07:30pm 13.4 4.8 8.3 71 2.6 W 43 63 23 34 1017.2 - 0.0
25/07:00pm 13.7 3.8 8.1 69 2.8 W 50 74 27 40 1016.8 - 0.0
25/06:30pm 14.3 4.0 8.3 67 3.0 W 52 70 28 38 1016.0 - 0.0
25/06:00pm 13.7 4.7 8.7 72 2.5 W 46 67 25 36 1016.1 1016.2 0.0
25/05:45pm 12.9 1.3 8.4 74 2.2 W 59 78 32 42 1016.3 - 0.0
25/05:35pm 13.4 0.8 8.7 73 2.4 W 65 78 35 42 1015.8 - 0.0
25/05:32pm 13.9 5.8 8.7 71 2.6 W 41 59 22 32 1016.3 - 0.0
25/05:30pm 14.2 5.8 8.8 70 2.7 W 43 59 23 32 1016.5 - 0.0
25/05:00pm 14.9 6.2 8.4 65 3.3 W 44 67 24 36 1016.1 - 0.0
25/04:30pm 14.9 6.4 8.4 65 3.3 W 43 65 23 35 1015.8 - 0.0
25/04:00pm 15.7 6.9 8.0 60 3.9 W 44 65 24 35 1015.6 - 0.0
25/03:30pm 15.4 6.4 8.9 65 3.3 W 46 67 25 36 1015.9 - 0.0
25/03:00pm 16.0 8.8 9.2 64 3.5 W 37 61 20 33 1015.8 1015.8 0.0
25/02:30pm 15.6 5.3 8.1 61 3.8 W 52 72 28 39 1015.7 - 0.0
25/02:00pm 15.9 7.5 9.8 67 3.2 W 44 65 24 35 1015.6 - 0.0
25/01:30pm 15.8 6.8 8.8 63 3.6 W 46 70 25 38 1015.3 - 0.0
25/01:00pm 14.8 5.0 8.7 67 3.1 W 50 69 27 37 1015.3 - 0.0
25/12:30pm 15.3 6.7 8.8 65 3.3 W 44 69 24 37 1015.0 - 0.0
25/12:00pm 15.5 6.5 9.0 65 3.3 W 46 65 25 35 1014.9 1014.9 0.0
25/11:30am 15.3 4.5 7.8 61 3.8 W 54 72 29 39 1014.3 - 0.0
25/11:00am 15.3 5.5 8.5 64 3.5 W 50 69 27 37 1013.8 - 0.0
25/10:30am 15.3 4.4 9.0 66 3.2 W 56 74 30 40 1013.7 - 0.0
25/10:00am 14.7 3.6 8.6 67 3.1 W 57 76 31 41 1013.3 - 0.0
25/09:30am 14.9 5.1 8.6 66 3.2 W 50 69 27 37 1013.2 - 0.0
25/09:00am 14.4 5.0 8.8 69 2.8 W 48 69 26 37 1012.9 1012.9 28.8
25/08:38am 14.2 3.7 9.0 71 2.7 W 54 72 29 39 1012.4 - 28.8
25/08:30am 14.0 3.0 8.6 70 2.7 W 56 72 30 39 1012.2 - 28.8
25/08:00am 14.3 5.2 9.7 74 2.4 W 48 69 26 37 1012.0 - 28.8
25/07:30am 13.6 3.9 8.9 73 2.4 W 50 70 27 38 1011.6 - 28.8
25/07:01am 13.2 3.4 8.5 73 2.4 W 50 74 27 40 1011.2 - 28.8
25/07:00am 13.2 3.0 8.5 73 2.4 W 52 69 28 37 1011.2 - 28.8
25/06:30am 12.8 3.2 8.1 73 2.3 W 48 70 26 38 1010.8 - 28.8
25/06:00am 13.1 2.8 8.0 71 2.5 W 52 76 28 41 1010.1 1010.1 28.8
25/05:30am 13.0 3.8 7.9 71 2.5 W 46 69 25 37 1009.8 - 28.8
25/05:00am 12.8 1.6 7.7 71 2.5 W 56 74 30 40 1009.2 - 28.8
25/04:30am 12.4 2.1 6.7 68 2.7 W 50 76 27 41 1009.3 - 28.8
25/04:00am 13.2 1.9 7.2 67 2.9 W 56 80 30 43 1009.0 - 28.8
25/03:30am 13.2 4.4 7.9 70 2.6 W 44 67 24 36 1009.3 - 28.8
25/03:03am 13.2 4.4 7.4 68 2.8 W 43 61 23 33 1009.4 - 28.8
25/03:00am 13.1 4.3 7.1 67 2.9 W 43 59 23 32 1009.5 1009.5 28.8
25/02:30am 13.2 4.2 7.4 68 2.8 W 44 69 24 37 1009.5 - 28.8
25/02:02am 12.9 5.1 6.7 66 3.0 W 37 57 20 31 1009.7 - 28.8
25/02:00am 12.9 5.5 6.7 66 3.0 W 35 52 19 28 1009.8 - 28.8
25/01:30am 13.0 3.9 7.0 67 2.9 W 44 67 24 36 1009.8 - 28.8
25/01:00am 12.8 3.9 7.7 71 2.5 W 44 63 24 34 1009.9 - 28.8
25/12:49am 13.4 5.6 8.3 71 2.6 W 39 57 21 31 1009.6 - 28.4
25/12:30am 13.4 3.8 7.8 69 2.8 W 48 63 26 34 1009.7 - 28.4
25/12:00am 13.5 4.6 7.5 67 3.0 W 44 61 24 33 1009.8 1009.8 28.4
 
Date/Time
EDT
Temp
°C
App
Temp
°C
Dew
Point
Rel
Hum
%
Delta-T
°C
Wind Press
QNH
hPa
Press
MSL
hPa
Rain
since 9 am
mm
Dir
 
Spd
km/h
Gust
km/h
Spd
kts
Gust
kts
24/11:36pm 13.7 6.2 8.1 69 2.8 W 37 56 20 30 1009.9 - 28.4
24/11:30pm 13.8 5.9 7.8 67 3.0 W 39 54 21 29 1009.8 - 28.4
24/11:00pm 13.5 5.3 8.1 70 2.7 W 41 59 22 32 1009.4 - 28.4
24/10:37pm 13.9 6.0 9.3 74 2.4 W 41 61 22 33 1009.2 - 28.4
24/10:30pm 13.6 5.5 10.0 79 1.9 W 43 57 23 31 1009.4 - 28.4
24/10:12pm 13.2 7.0 10.2 82 1.6 W 33 52 18 28 1009.5 - 28.4
24/10:00pm 13.3 6.0 10.3 82 1.6 W 39 50 21 27 1009.7 - 28.4
24/09:30pm 13.3 5.6 10.3 82 1.6 W 41 54 22 29 1008.9 - 28.4
24/09:00pm 13.3 5.4 10.7 84 1.4 W 43 59 23 32 1008.5 1008.5 28.4
24/08:41pm 13.4 6.4 11.1 86 1.2 W 39 57 21 31 1008.3 - 28.4
24/08:30pm 13.7 6.1 11.7 88 1.1 W 43 56 23 30 1008.0 - 28.4
24/08:02pm 13.7 6.9 11.9 89 1.0 W 39 57 21 31 1007.6 - 28.4
24/08:00pm 13.8 7.4 12.0 89 1.0 W 37 52 20 28 1007.6 - 28.4
24/07:34pm 14.0 4.8 12.2 89 1.0 WSW 52 70 28 38 1007.2 - 28.4
24/07:30pm 13.7 3.1 11.9 89 1.0 WSW 59 72 32 39 1006.8 - 28.4
24/07:04pm 14.2 4.8 12.6 90 0.9 WSW 54 72 29 39 1006.0 - 28.4
24/07:00pm 14.6 5.7 13.0 90 0.9 WSW 52 67 28 36 1006.0 - 28.4
24/06:48pm 14.6 7.4 13.1 91 0.8 W 43 65 23 35 1005.9 - 28.4
24/06:30pm 14.4 7.6 13.0 91 0.8 W 41 52 22 28 1005.7 - 28.4
24/06:05pm 14.7 7.9 13.2 91 0.8 W 41 61 22 33 1004.6 - 28.4
24/06:00pm 15.1 7.9 13.6 91 0.8 W 44 57 24 31 1004.8 1004.8 28.4
24/05:43pm 15.1 8.1 13.6 91 0.8 W 43 61 23 33 1004.4 - 28.4
24/05:30pm 15.1 7.9 13.6 91 0.8 W 44 61 24 33 1004.6 - 28.4
24/05:01pm 15.7 8.7 14.2 91 0.9 W 44 63 24 34 1004.4 - 25.6
24/05:00pm 15.7 8.3 14.1 90 0.9 W 46 63 25 34 1004.2 - 25.6
24/04:30pm 16.6 11.2 15.0 90 0.9 W 37 57 20 31 1004.6 - 22.0
24/04:12pm 17.0 12.1 15.3 90 1.0 WNW 35 56 19 30 1004.6 - 20.8
24/04:00pm 17.0 13.0 15.3 90 1.0 WNW 30 46 16 25 1004.5 - 20.8
24/03:30pm 17.0 15.0 15.5 91 0.9 W 20 37 11 20 1004.6 - 19.2
24/03:00pm 15.9 13.2 14.6 92 0.7 N 22 39 12 21 1005.9 1005.8 13.8
24/02:30pm 15.3 11.3 14.0 92 0.7 N 28 39 15 21 1005.8 - 10.4
24/02:00pm 14.9 11.0 13.4 91 0.8 NNE 26 33 14 18 1006.0 - 7.8
24/01:30pm 15.1 12.0 13.5 90 0.9 NNE 22 33 12 18 1007.2 - 7.4
24/01:00pm 15.1 11.2 13.3 89 1.0 N 26 33 14 18 1008.4 - 6.0
24/12:30pm 14.9 10.8 12.8 87 1.2 NNE 26 30 14 16 1008.4 - 5.0
24/12:00pm 14.6 10.7 12.1 85 1.4 NNE 24 30 13 16 1009.0 1009.0 4.2
24/11:30am 14.4 10.8 11.7 84 1.5 NNE 22 24 12 13 1009.0 - 4.2
24/11:00am 15.0 14.3 11.4 79 1.9 N 6 9 3 5 1009.6 - 2.6
24/10:30am 15.1 14.4 11.3 78 2.0 NNW 6 19 3 10 1010.1 - 2.0
24/10:00am 15.5 10.4 10.7 73 2.6 WNW 28 37 15 20 1010.8 - 0.8
24/09:30am 16.3 9.7 8.5 60 4.0 NNE 33 46 18 25 1009.6 - 0.0
24/09:00am 17.1 10.5 7.7 54 4.8 NNE 32 43 17 23 1008.5 1008.5 0.0
24/08:30am 17.0 10.3 8.2 56 4.5 NNE 33 43 18 23 1008.3 - 0.0
24/08:00am 17.0 10.1 7.4 53 4.8 NNE 33 43 18 23 1008.6 - 0.0
24/07:30am 17.1 9.4 7.2 52 5.0 NNE 37 54 20 29 1008.6 - 0.0
24/07:27am 17.5 10.0 6.1 47 5.6 NNE 35 54 19 29 1008.7 - 0.0
24/07:00am 17.3 9.7 5.6 46 5.7 NNE 35 44 19 24 1009.0 - 0.0
24/06:30am 16.5 9.3 6.1 50 5.1 NNE 33 46 18 25 1008.8 - 0.0
24/06:00am 16.2 8.7 6.1 51 4.9 NNE 35 46 19 25 1008.5 1008.5 0.0
24/05:30am 16.1 8.4 5.4 49 5.1 NNE 35 46 19 25 1008.9 - 0.0
24/05:12am 16.3 9.2 5.3 48 5.3 N 32 50 17 27 1009.0 - 0.0
24/05:00am 16.4 9.3 5.4 48 5.3 NNE 32 44 17 24 1009.2 - 0.0
24/04:30am 16.0 9.3 5.6 50 5.0 NNE 30 39 16 21 1009.6 - 0.0
24/04:00am 16.0 9.7 5.6 50 5.0 NNE 28 37 15 20 1010.1 - 0.0
24/03:30am 16.0 9.8 6.2 52 4.8 NNE 28 35 15 19 1010.1 - 0.0
24/03:00am 16.2 10.3 7.4 56 4.4 NNE 28 39 15 21 1010.6 1010.6 0.0
24/02:30am 15.4 11.4 10.4 72 2.6 NNE 22 28 12 15 1011.1 - 0.0
24/02:00am 15.0 10.7 10.8 76 2.2 NNE 24 28 13 15 1012.0 - 0.0
24/01:30am 14.9 10.2 10.7 76 2.2 NNE 26 32 14 17 1012.2 - 0.0
24/01:00am 14.9 11.0 10.9 77 2.1 NNE 22 26 12 14 1012.3 - 0.0
24/12:30am 14.9 10.6 10.7 76 2.2 NNE 24 28 13 15 1012.8 - 0.0
24/12:00am 14.9 10.6 10.9 77 2.1 NNE 24 30 13 16 1013.2 1013.2 0.0
 
Date/Time
EDT
Temp
°C
App
Temp
°C
Dew
Point
Rel
Hum
%
Delta-T
°C
Wind Press
QNH
hPa
Press
MSL
hPa
Rain
since 9 am
mm
Dir
 
Spd
km/h
Gust
km/h
Spd
kts
Gust
kts
23/11:30pm 15.0 10.3 10.8 76 2.2 NNE 26 35 14 19 1013.5 - 0.0
23/11:00pm 15.4 11.7 10.2 71 2.7 NNE 20 28 11 15 1013.7 - 0.0
23/10:30pm 15.1 11.5 9.9 71 2.7 NNE 19 24 10 13 1014.0 - 0.0
23/10:00pm 15.2 11.6 8.4 64 3.4 N 17 20 9 11 1014.0 - 0.0
23/09:30pm 14.8 11.2 8.5 66 3.2 NNE 17 19 9 10 1014.0 - 0.0
23/09:00pm 15.3 13.1 7.8 61 3.8 NNE 9 11 5 6 1013.9 1013.9 0.0
23/08:30pm 15.6 15.3 8.6 63 3.6 CALM 0 0 0 0 1014.0 - 0.0
23/08:00pm 15.8 14.3 9.0 64 3.5 W 7 9 4 5 1013.9 - 0.0
23/07:30pm 15.5 14.4 10.1 70 2.8 NNE 6 7 3 4 1013.5 - 0.0
23/07:00pm 15.3 14.0 10.1 71 2.7 E 7 9 4 5 1013.3 - 0.0
23/06:30pm 15.8 15.0 9.7 67 3.2 S 4 7 2 4 1013.0 - 0.0

Other Formats:

Comma delimited format used in spreadsheet applications
http://www.bom.gov.au/fwo/IDV60801/IDV60801.94893.axf

JavaScript Object Notation format (JSON) in row-major order
http://www.bom.gov.au/fwo/IDV60801/IDV60801.94893.json